Item Display Status Humidity-temperature Sensor

Elevation Above Sea Level: 3 m

 

Deployed Sensor

  • Serial Number: 20224933
  • NDBC Property Number: 42150
  • Start Date: 1/26/2023 (14:34:47 Z)
  • End Date: Currently Active
Relative Humidity [%]     6 entries per hour
Showing data from 4/22/2024 (05:00:00 Z) to 4/21/2024 (00:00:01 Z)
Previous Next [ Day | 3-Days | 7-Days ]
First Last
Prev [ Day | 3-Days | 7-Days ] Next
First Last

Start Time:     :
End Time:     :     
Time (in GMT) :00 :50 :40 :30 :20 :10
Previous Next [ Day | 3-Days | 7-Days ]
First Last
Prev [ Day | 3-Days | 7-Days ] Next
First Last


123 => good data
MM => data is determined as missing
-- => data not received/configured
Back to Top Back to Top
4/22/2024 05:00 to 4:10 80.03 80.77 81.03 81.33 81.77 81.53
4/22/2024 04:00 to 3:10 80.81 80.57 80.87 81.69 81.25 81.15
4/22/2024 03:00 to 2:10 80.81 80.01 80.23 80.29 79.49 79.99
4/22/2024 02:00 to 1:10 80.87 80.89 81.77 81.23 81.57 80.55
4/22/2024 01:00 to 0:10 80.41 81.31 81.29 82.17 82.17 82.25
4/22/2024 00:00 to 23:10 82.55 83.05 83.13 82.17 81.83 81.91
4/21/2024 23:00 to 22:10 80.89 80.81 80.45 80.23 80.79 80.79
4/21/2024 22:00 to 21:10 79.87 79.11 78.18 78.36 78.44 78.97
4/21/2024 21:00 to 20:10 79.07 78.97 78.38 79.05 80.09 78.79
4/21/2024 20:00 to 19:10 79.85 79.79 80.29 80.87 80.27 81.01
4/21/2024 19:00 to 18:10 81.57 80.55 80.81 81.67 81.67 81.03
4/21/2024 18:00 to 17:10 81.55 81.69 81.35 80.81 81.17 80.87
4/21/2024 17:00 to 16:10 80.75 80.85 81.03 81.33 81.19 81.51
4/21/2024 16:00 to 15:10 81.01 80.83 79.97 78.85 78.73 78.46
4/21/2024 15:00 to 14:10 78.67 79.65 80.33 79.63 78.71 79.19
4/21/2024 14:00 to 13:10 80.01 80.35 79.17 78.60 78.87 79.49
4/21/2024 13:00 to 12:10 80.55 80.93 81.93 82.59 83.15 82.87
4/21/2024 12:00 to 11:10 82.99 83.51 83.19 82.33 82.03 81.69
4/21/2024 11:00 to 10:10 81.61 82.51 83.07 83.39 83.99 84.40
4/21/2024 10:00 to 9:10 84.68 84.30 84.58 84.64 84.78 84.82
4/21/2024 09:00 to 8:10 85.46 85.94 86.26 86.66 86.02 86.14
4/21/2024 08:00 to 7:10 86.32 86.54 86.84 86.48 86.42 86.54
4/21/2024 07:00 to 6:10 86.20 85.98 85.72 85.14 84.96 85.22
4/21/2024 06:00 to 5:10 85.92 85.90 86.38 85.50 84.44 84.18
4/21/2024 05:00 to 4:10 84.56 84.28 84.32 84.70 84.66 84.96
4/21/2024 04:00 to 3:10 85.84 86.50 86.24 86.46 87.22 86.34
4/21/2024 03:00 to 2:10 85.34 86.48 87.76 87.70 86.92 85.54
4/21/2024 02:00 to 1:10 83.73 84.15 83.43 82.49 82.75 83.33
4/21/2024 01:00 to 0:10 83.17 83.31 83.45 82.51 80.81 80.25

 

 

 

Air Temperature [°C]     6 entries per hour
Showing data from 4/22/2024 (05:00:00 Z) to 4/21/2024 (00:00:01 Z)
Previous Next [ Day | 3-Days | 7-Days ]
First Last
Prev [ Day | 3-Days | 7-Days ] Next
First Last

Start Time:     :
End Time:     :     
Time (in GMT) :00 :50 :40 :30 :20 :10
Previous Next [ Day | 3-Days | 7-Days ]
First Last
Prev [ Day | 3-Days | 7-Days ] Next
First Last


123 => good data
MM => data is determined as missing
-- => data not received/configured
Back to Top Back to Top
4/22/2024 05:00 to 4:10 27.49 27.62 27.46 27.44 27.55 27.60
4/22/2024 04:00 to 3:10 27.54 27.56 27.46 27.41 27.64 27.56
4/22/2024 03:00 to 2:10 27.64 27.54 27.49 27.50 27.66 27.44
4/22/2024 02:00 to 1:10 27.45 27.49 27.52 27.71 27.46 27.58
4/22/2024 01:00 to 0:10 27.45 27.44 27.60 27.52 27.52 27.53
4/22/2024 00:00 to 23:10 27.60 27.64 27.73 27.66 27.58 27.68
4/21/2024 23:00 to 22:10 27.98 27.78 27.90 27.71 27.71 27.79
4/21/2024 22:00 to 21:10 27.98 27.82 27.79 27.80 27.93 27.84
4/21/2024 21:00 to 20:10 27.81 28.00 27.83 27.58 27.71 27.63
4/21/2024 20:00 to 19:10 27.72 27.75 27.47 27.74 27.72 27.57
4/21/2024 19:00 to 18:10 27.61 27.68 27.60 27.60 27.75 27.57
4/21/2024 18:00 to 17:10 27.53 27.64 27.54 27.60 27.59 27.71
4/21/2024 17:00 to 16:10 27.54 27.73 27.67 27.71 27.52 27.68
4/21/2024 16:00 to 15:10 27.73 27.72 27.84 27.81 27.64 27.79
4/21/2024 15:00 to 14:10 27.66 27.78 27.67 27.84 27.91 27.74
4/21/2024 14:00 to 13:10 27.76 27.77 27.80 27.66 27.73 27.53
4/21/2024 13:00 to 12:10 27.60 27.44 27.43 27.25 27.35 27.34
4/21/2024 12:00 to 11:10 27.17 27.33 27.32 27.59 27.51 27.41
4/21/2024 11:00 to 10:10 27.44 27.21 27.30 27.33 27.27 27.30
4/21/2024 10:00 to 9:10 27.23 27.35 27.35 27.22 27.25 27.17
4/21/2024 09:00 to 8:10 27.17 27.11 27.04 27.22 27.30 27.20
4/21/2024 08:00 to 7:10 27.26 27.01 27.14 27.14 27.18 27.18
4/21/2024 07:00 to 6:10 27.22 27.14 27.33 27.18 27.30 27.20
4/21/2024 06:00 to 5:10 27.13 27.29 26.96 27.42 27.50 27.38
4/21/2024 05:00 to 4:10 27.35 27.41 27.31 27.52 27.37 27.34
4/21/2024 04:00 to 3:10 27.34 27.23 27.42 27.30 27.46 27.36
4/21/2024 03:00 to 2:10 27.34 27.40 27.09 27.30 27.40 27.53
4/21/2024 02:00 to 1:10 27.48 27.50 27.76 27.80 27.53 27.56
4/21/2024 01:00 to 0:10 27.79 27.48 27.60 27.75 27.70 27.72